Weather Data

Pearl Creek Farm: 8878 N Farm Road 75, Walnut Grove MO 65770

<== Previous Day (Friday 07 Apr 2017) | Next Day (Sunday 09 Apr 2017) ==>

Summary Precipitation Data For Saturday 08 April 2017

ElementValueUnits
Precipitation0"
Notes(none)
SourcePearl Creek Farm

Summary Temperature Data For Saturday 08 April 2017

ElementValueUnits
High Temperature78 oF
Low Temperature50 oF
Average Temperature65 oF
High Humidity58 %
Low Humidity35 %
Average Humidity46 %
SourceSpringfield-Branson National Airport (SGF)

Detail Temperature Data For Saturday 08 April 2017

Date / TimeTemp (F)RH (%)Dew Pt (F)Report Date / TimeSource
2017-04-08 00:52:00 52 41 29.0 2017-12-29 17:00:26.17417 Springfield-Branson National Airport (SGF)
2017-04-08 01:52:00 52 43 30.0 2017-12-29 17:00:26.17417 Springfield-Branson National Airport (SGF)
2017-04-08 02:52:00 51 46 31.0 2017-12-29 17:00:26.17417 Springfield-Branson National Airport (SGF)
2017-04-08 03:52:00 50 50 32.0 2017-12-29 17:00:26.17417 Springfield-Branson National Airport (SGF)
2017-04-08 04:52:00 50 52 33.0 2017-12-29 17:00:26.17417 Springfield-Branson National Airport (SGF)
2017-04-08 05:52:00 50 54 34.0 2017-12-29 17:00:26.17417 Springfield-Branson National Airport (SGF)
2017-04-08 06:52:00 52 55 36.0 2017-12-29 17:00:26.17417 Springfield-Branson National Airport (SGF)
2017-04-08 07:52:00 59 49 40.0 2017-12-29 17:00:26.17417 Springfield-Branson National Airport (SGF)
2017-04-08 08:52:00 63 48 43.0 2017-12-29 17:00:26.17417 Springfield-Branson National Airport (SGF)
2017-04-08 09:52:00 67 47 46.0 2017-12-29 17:00:26.17417 Springfield-Branson National Airport (SGF)
2017-04-08 10:52:00 72 44 49.0 2017-12-29 17:00:26.17417 Springfield-Branson National Airport (SGF)
2017-04-08 11:52:00 74 43 50.0 2017-12-29 17:00:26.17417 Springfield-Branson National Airport (SGF)
2017-04-08 12:52:00 76 40 50.0 2017-12-29 17:00:26.17417 Springfield-Branson National Airport (SGF)
2017-04-08 13:52:00 77 37 49.0 2017-12-29 17:00:26.17417 Springfield-Branson National Airport (SGF)
2017-04-08 14:52:00 77 35 47.0 2017-12-29 17:00:26.17417 Springfield-Branson National Airport (SGF)
2017-04-08 15:52:00 78 35 48.0 2017-12-29 17:00:26.17417 Springfield-Branson National Airport (SGF)
2017-04-08 16:52:00 77 36 48.0 2017-12-29 17:00:26.17417 Springfield-Branson National Airport (SGF)
2017-04-08 17:52:00 74 40 48.0 2017-12-29 17:00:26.17417 Springfield-Branson National Airport (SGF)
2017-04-08 18:52:00 70 44 47.0 2017-12-29 17:00:26.17417 Springfield-Branson National Airport (SGF)
2017-04-08 19:52:00 68 45 46.0 2017-12-29 17:00:26.17417 Springfield-Branson National Airport (SGF)
2017-04-08 20:52:00 67 51 48.0 2017-12-29 17:00:26.17417 Springfield-Branson National Airport (SGF)
2017-04-08 21:52:00 66 54 49.0 2017-12-29 17:00:26.17417 Springfield-Branson National Airport (SGF)
2017-04-08 22:52:00 65 54 48.0 2017-12-29 17:00:26.17417 Springfield-Branson National Airport (SGF)
2017-04-08 23:52:00 63 58 48.0 2017-12-29 17:00:26.17417 Springfield-Branson National Airport (SGF)

A total of 24 rows are displayed.